Time;durP1;ratioP1;P1;durP2;ratioP2;P2;SDS_P1;SDS_P2;PMS_P1;PMS_P2;Temp;Humidity;BMP_temperature;BMP_pressure;BME280_temperature;BME280_humidity;BME280_pressure;Samples;Min_cycle;Max_cycle;Signal;HPM_P1;HPM_P2
2022/06/29 00:00:27;;;;;;;;;;;;;;;18.10;55.26;100601.59;6155583;23;982;-88
2022/06/29 00:02:53;;;;;;;;;;;;;;;17.46;57.01;100601.41;6155460;23;1286;-88
2022/06/29 00:05:21;;;;;;;;;;;;;;;17.41;58.06;100598.81;6157080;23;787;-88
2022/06/29 00:07:46;;;;;;;;;;;;;;;17.88;57.02;100601.78;6155987;23;1956;-89
2022/06/29 00:10:12;;;;;;;;;;;;;;;18.00;56.04;100605.53;6155996;23;1413;-88
2022/06/29 00:12:38;;;;;;;;;;;;;;;17.56;57.54;100598.31;6155653;23;1328;-89
2022/06/29 00:15:04;;;;;;;;;;;;;;;17.16;58.69;100600.41;6157005;23;1019;-88
2022/06/29 00:17:30;;;;;;;;;;;;;;;17.51;57.69;100595.72;6155537;23;1349;-88
2022/06/29 00:19:56;;;;;;;;;;;;;;;17.61;57.72;100598.16;6155442;23;1370;-88
2022/06/29 00:22:21;;;;;;;;;;;;;;;17.54;57.85;100600.59;6154914;23;1275;-88
2022/06/29 00:24:46;;;;;;;;;;;;;;;17.12;58.16;100602.16;6154716;23;791;-88
2022/06/29 00:27:11;;;;;;;;;;;;;;;17.10;58.11;100604.44;6154971;23;1291;-88
2022/06/29 00:29:37;;;;;;;;;;;;;;;17.28;57.70;100596.97;6154785;23;1944;-89
2022/06/29 00:32:02;;;;;;;;;;;;;;;16.84;58.25;100596.03;6156606;23;1188;-88
2022/06/29 00:34:27;;;;;;;;;;;;;;;17.25;57.76;100594.88;6154905;23;1184;-88
2022/06/29 00:36:52;;;;;;;;;;;;;;;17.20;57.29;100593.06;6154617;23;1072;-88
2022/06/29 00:39:18;;;;;;;;;;;;;;;17.04;58.15;100600.19;6154655;23;1247;-88
2022/06/29 00:41:43;;;;;;;;;;;;;;;16.84;58.56;100604.34;6155495;23;1303;-87
2022/06/29 00:44:12;;;;;;;;;;;;;;;16.99;58.16;100597.59;6155191;23;1213;-88
2022/06/29 00:46:57;;;;;;;;;;;;;;;17.29;57.50;100585.59;6155216;23;1355;-86
2022/06/29 00:49:23;;;;;;;;;;;;;;;17.35;57.94;100602.88;6156849;23;1899;-89
2022/06/29 00:51:49;;;;;;;;;;;;;;;16.99;57.60;100601.16;6155051;23;1296;-87
2022/06/29 00:54:19;;;;;;;;;;;;;;;16.94;58.56;100600.47;6155123;23;1145;-88
2022/06/29 00:56:45;;;;;;;;;;;;;;;17.01;58.27;100598.09;6156937;23;1015;-88
2022/06/29 00:59:12;;;;;;;;;;;;;;;17.04;58.11;100591.88;6155554;23;1293;-88
2022/06/29 01:01:38;;;;;;;;;;;;;;;17.08;57.75;100589.31;6157007;23;1038;-88
2022/06/29 01:04:03;;;;;;;;;;;;;;;16.77;59.80;100586.59;6154766;23;1208;-89
2022/06/29 01:06:28;;;;;;;;;;;;;;;16.64;59.21;100580.06;6155006;23;1411;-88
2022/06/29 01:08:53;;;;;;;;;;;;;;;16.67;59.57;100576.66;6155090;23;1920;-87
2022/06/29 01:11:19;;;;;;;;;;;;;;;16.76;60.04;100574.72;6154892;23;1010;-88
2022/06/29 01:13:44;;;;;;;;;;;;;;;16.49;60.40;100574.94;6156279;23;1257;-87
2022/06/29 01:16:09;;;;;;;;;;;;;;;16.41;59.91;100575.69;6155875;23;834;-87
2022/06/29 01:18:35;;;;;;;;;;;;;;;16.26;60.34;100568.63;6156408;23;1059;-88
2022/06/29 01:21:04;;;;;;;;;;;;;;;16.45;59.54;100580.25;6153728;23;1256;-88
2022/06/29 01:23:29;;;;;;;;;;;;;;;16.31;60.36;100585.06;6155862;23;1137;-89
2022/06/29 01:25:54;;;;;;;;;;;;;;;16.45;60.25;100579.44;6154410;23;1361;-87
2022/06/29 01:28:19;;;;;;;;;;;;;;;16.81;59.66;100577.34;6157244;23;1880;-87
2022/06/29 01:30:44;;;;;;;;;;;;;;;16.90;58.78;100571.84;6156730;23;1024;-88
2022/06/29 01:33:10;;;;;;;;;;;;;;;16.84;59.52;100567.63;6154439;23;1204;-88
2022/06/29 01:35:35;;;;;;;;;;;;;;;16.84;59.26;100579.47;6154657;23;1427;-87
2022/06/29 01:38:00;;;;;;;;;;;;;;;16.73;58.78;100577.31;6156370;23;775;-89
2022/06/29 01:40:25;;;;;;;;;;;;;;;16.77;58.98;100572.78;6156394;23;1015;-88
2022/06/29 01:42:50;;;;;;;;;;;;;;;16.46;60.00;100564.50;6154868;23;1350;-88
2022/06/29 01:45:15;;;;;;;;;;;;;;;16.53;60.00;100557.38;6156059;23;739;-88
2022/06/29 01:47:40;;;;;;;;;;;;;;;16.57;60.20;100565.84;6154652;23;1885;-88
2022/06/29 01:50:06;;;;;;;;;;;;;;;15.96;60.83;100559.19;6154740;23;853;-89
2022/06/29 01:52:31;;;;;;;;;;;;;;;15.71;62.01;100557.06;6155768;23;1190;-88
2022/06/29 01:54:56;;;;;;;;;;;;;;;15.96;61.38;100553.66;6155576;23;822;-88
2022/06/29 01:57:21;;;;;;;;;;;;;;;16.03;61.36;100544.94;6155784;23;976;-88
2022/06/29 01:59:46;;;;;;;;;;;;;;;16.14;60.98;100543.53;6154822;23;817;-88
2022/06/29 02:02:11;;;;;;;;;;;;;;;16.03;60.63;100543.00;6154404;23;1204;-88
2022/06/29 02:04:37;;;;;;;;;;;;;;;16.19;61.00;100544.22;6154627;23;945;-89
2022/06/29 02:07:02;;;;;;;;;;;;;;;16.21;60.66;100532.84;6155344;23;1217;-89
2022/06/29 02:09:27;;;;;;;;;;;;;;;16.37;60.18;100539.59;6156021;23;1901;-88
2022/06/29 02:11:52;;;;;;;;;;;;;;;16.51;59.38;100532.00;6165366;23;1313;-89
2022/06/29 02:14:18;;;;;;;;;;;;;;;16.15;60.49;100536.91;6154167;23;1032;-88
2022/06/29 02:16:43;;;;;;;;;;;;;;;16.23;60.44;100541.66;6154164;23;818;-88
2022/06/29 02:19:08;;;;;;;;;;;;;;;16.19;60.32;100538.69;6154931;23;1155;-88
2022/06/29 02:21:33;;;;;;;;;;;;;;;15.83;61.46;100532.47;6155736;23;1008;-89
2022/06/29 02:23:58;;;;;;;;;;;;;;;15.86;61.64;100535.41;6155698;23;1160;-87
2022/06/29 02:26:23;;;;;;;;;;;;;;;15.87;61.53;100527.94;6155924;23;981;-88
2022/06/29 02:28:49;;;;;;;;;;;;;;;15.72;61.61;100523.63;6154149;23;1888;-88
2022/06/29 02:36:41;;;;;;;;;;;;;;;15.41;63.30;100520.75;6156037;23;608;-88
2022/06/29 02:39:06;;;;;;;;;;;;;;;15.72;62.56;100526.41;6154250;23;1001;-88
2022/06/29 02:41:31;;;;;;;;;;;;;;;15.64;62.32;100515.31;6153950;23;1244;-88
2022/06/29 02:43:58;;;;;;;;;;;;;;;15.57;61.70;100512.97;6154060;23;1161;-87
2022/06/29 02:46:23;;;;;;;;;;;;;;;15.32;63.16;100516.28;6154381;23;1218;-88
2022/06/29 02:48:48;;;;;;;;;;;;;;;15.41;62.60;100520.75;6156021;23;1920;-88
2022/06/29 02:51:13;;;;;;;;;;;;;;;15.70;61.89;100519.56;6155901;23;1299;-88
2022/06/29 02:53:38;;;;;;;;;;;;;;;15.73;62.18;100511.47;6155191;23;1208;-88
2022/06/29 02:56:04;;;;;;;;;;;;;;;15.73;61.77;100511.47;6156214;23;1306;-89
2022/06/29 02:58:29;;;;;;;;;;;;;;;15.72;61.41;100503.50;6156268;23;1270;-89
2022/06/29 03:00:54;;;;;;;;;;;;;;;15.57;61.69;100501.13;6155859;23;1197;-88
2022/06/29 03:03:19;;;;;;;;;;;;;;;15.62;61.36;100503.75;6157057;23;1292;-88
2022/06/29 03:05:44;;;;;;;;;;;;;;;15.19;62.83;100501.44;6157144;23;932;-89
2022/06/29 03:08:10;;;;;;;;;;;;;;;15.20;63.47;100496.75;6156157;23;1885;-88
2022/06/29 03:10:35;;;;;;;;;;;;;;;15.26;63.80;100499.06;6155993;23;1228;-88
2022/06/29 03:13:00;;;;;;;;;;;;;;;15.45;63.42;100504.41;6155845;23;1263;-89
2022/06/29 03:15:25;;;;;;;;;;;;;;;15.39;62.77;100500.97;6159035;23;988;-89
2022/06/29 03:17:51;;;;;;;;;;;;;;;15.34;63.26;100509.34;6157535;23;1229;-88
2022/06/29 03:20:16;;;;;;;;;;;;;;;14.91;64.58;100503.44;6156964;23;1247;-88
2022/06/29 03:22:44;;;;;;;;;;;;;;;15.38;64.04;100504.84;6156088;23;1263;-87
2022/06/29 03:25:09;;;;;;;;;;;;;;;15.09;63.92;100510.75;6155266;23;1243;-90
2022/06/29 03:27:34;;;;;;;;;;;;;;;15.37;63.44;100502.41;6157013;23;1012;-88
2022/06/29 03:29:59;;;;;;;;;;;;;;;15.50;63.31;100496.00;6158093;23;1923;-88
2022/06/29 03:32:24;;;;;;;;;;;;;;;15.59;62.17;100493.34;6156280;23;1176;-89
2022/06/29 03:34:49;;;;;;;;;;;;;;;15.44;63.06;100495.31;6154732;23;1263;-88
2022/06/29 03:37:14;;;;;;;;;;;;;;;15.09;63.75;100496.16;6155852;23;913;-88
2022/06/29 03:39:41;;;;;;;;;;;;;;;15.37;63.79;100494.94;6157132;23;814;-89
2022/06/29 03:42:07;;;;;;;;;;;;;;;15.12;64.39;100495.53;6155828;23;1292;-89
2022/06/29 03:44:32;;;;;;;;;;;;;;;15.31;63.59;100498.94;6156108;23;1272;-88
2022/06/29 03:46:58;;;;;;;;;;;;;;;15.15;63.59;100505.94;6157337;23;930;-88
2022/06/29 03:49:23;;;;;;;;;;;;;;;15.12;64.20;100499.13;6157153;23;1922;-88
2022/06/29 03:51:48;;;;;;;;;;;;;;;15.11;64.47;100510.44;6155689;23;1260;-88
2022/06/29 03:54:13;;;;;;;;;;;;;;;15.33;63.92;100506.91;6155732;23;969;-88
2022/06/29 03:56:38;;;;;;;;;;;;;;;15.39;64.46;100512.00;6155275;23;1045;-89
2022/06/29 03:59:04;;;;;;;;;;;;;;;15.45;64.47;100515.44;6155079;23;891;-88
2022/06/29 04:01:29;;;;;;;;;;;;;;;15.37;63.84;100502.41;6157430;23;881;-88
2022/06/29 04:03:54;;;;;;;;;;;;;;;15.30;64.44;100504.78;6155231;23;1276;-88
2022/06/29 04:06:19;;;;;;;;;;;;;;;15.34;64.27;100514.03;6157303;23;799;-88
2022/06/29 04:08:44;;;;;;;;;;;;;;;15.31;64.46;100504.44;6155359;23;1897;-87
2022/06/29 04:13:54;;;;;;;;;;;;;;;15.35;63.80;100504.66;6156397;23;1240;-88
2022/06/29 04:16:19;;;;;;;;;;;;;;;15.33;64.80;100496.69;6156659;23;774;-88
2022/06/29 04:18:44;;;;;;;;;;;;;;;15.33;65.74;100493.09;6156571;23;818;-88
2022/06/29 04:21:09;;;;;;;;;;;;;;;15.51;64.95;100497.63;6156962;23;1055;-88
2022/06/29 04:23:34;;;;;;;;;;;;;;;15.37;64.77;100488.59;6156882;23;1267;-88
2022/06/29 04:25:59;;;;;;;;;;;;;;;15.34;64.45;100500.25;6155121;23;1303;-89
2022/06/29 04:28:25;;;;;;;;;;;;;;;15.49;64.62;100500.69;6154769;23;1889;-89
2022/06/29 04:30:50;;;;;;;;;;;;;;;15.68;63.54;100495.03;6154633;23;988;-89
2022/06/29 04:33:15;;;;;;;;;;;;;;;15.71;63.55;100491.66;6155018;23;1296;-89
2022/06/29 04:35:40;;;;;;;;;;;;;;;15.50;64.69;100496.00;6155545;23;1308;-90
2022/06/29 04:38:05;;;;;;;;;;;;;;;15.62;64.42;100490.78;6155196;23;1017;-90
2022/06/29 04:40:30;;;;;;;;;;;;;;;15.63;64.80;100483.31;6156054;23;1126;-89
2022/06/29 04:42:56;;;;;;;;;;;;;;;15.56;64.15;100488.47;6155092;23;1197;-89
2022/06/29 04:48:04;;;;;;;;;;;;;;;15.75;66.08;100480.78;6157046;23;1889;-88
2022/06/29 04:50:29;;;;;;;;;;;;;;;15.78;66.36;100485.69;6155289;23;1299;-89
2022/06/29 04:52:55;;;;;;;;;;;;;;;15.86;66.42;100468.34;6156382;23;1194;-89
2022/06/29 04:55:20;;;;;;;;;;;;;;;15.82;66.84;100470.13;6155496;23;1157;-89
2022/06/29 04:57:46;;;;;;;;;;;;;;;16.00;66.26;100476.53;6155145;23;1296;-88
2022/06/29 05:00:11;;;;;;;;;;;;;;;15.98;65.31;100479.63;6155178;23;1196;-88
2022/06/29 05:02:37;;;;;;;;;;;;;;;16.04;65.46;100472.03;6155100;23;1276;-89
2022/06/29 05:05:02;;;;;;;;;;;;;;;16.05;65.64;100479.16;6155144;23;953;-88
2022/06/29 05:07:27;;;;;;;;;;;;;;;16.02;66.42;100477.03;6155133;23;1176;-90
2022/06/29 05:09:52;;;;;;;;;;;;;;;16.14;65.63;100480.84;6156763;23;1934;-89
2022/06/29 05:12:17;;;;;;;;;;;;;;;16.12;65.52;100474.81;6155445;23;1243;-89
2022/06/29 05:14:43;;;;;;;;;;;;;;;16.17;66.58;100473.84;6155230;23;1032;-89
2022/06/29 05:17:08;;;;;;;;;;;;;;;16.26;66.54;100472.75;6155025;23;969;-90
2022/06/29 05:19:33;;;;;;;;;;;;;;;16.21;68.30;100467.38;6154994;23;939;-89
2022/06/29 05:21:58;;;;;;;;;;;;;;;16.13;69.77;100473.69;6153775;23;1259;-88
2022/06/29 05:24:23;;;;;;;;;;;;;;;16.14;69.16;100472.56;6153817;23;1008;-89
2022/06/29 05:26:48;;;;;;;;;;;;;;;15.91;68.67;100470.19;6154443;23;956;-88
2022/06/29 05:29:13;;;;;;;;;;;;;;;15.94;67.33;100472.28;6157276;23;1922;-89
2022/06/29 05:31:39;;;;;;;;;;;;;;;15.92;67.41;100469.84;6164605;23;988;-89
2022/06/29 05:34:04;;;;;;;;;;;;;;;16.06;68.51;100470.56;6155185;23;1287;-89
2022/06/29 05:36:29;;;;;;;;;;;;;;;16.11;68.34;100467.66;6154537;23;913;-88
2022/06/29 05:38:54;;;;;;;;;;;;;;;16.19;67.26;100475.16;6154736;23;1036;-89
2022/06/29 05:41:19;;;;;;;;;;;;;;;16.35;66.50;100472.78;6154737;23;1263;-88
2022/06/29 05:43:49;;;;;;;;;;;;;;;16.30;64.79;100466.59;6154349;23;1263;-89
2022/06/29 05:46:14;;;;;;;;;;;;;;;16.48;65.46;100473.81;6156324;23;880;-88
2022/06/29 05:48:40;;;;;;;;;;;;;;;16.37;65.87;100459.47;6154962;23;1885;-88
2022/06/29 05:51:05;;;;;;;;;;;;;;;16.46;65.45;100449.28;6154860;23;966;-89
2022/06/29 05:53:30;;;;;;;;;;;;;;;16.48;65.35;100454.47;6154777;23;1235;-89
2022/06/29 05:55:55;;;;;;;;;;;;;;;16.56;65.21;100456.47;6154844;23;1232;-88
2022/06/29 05:58:20;;;;;;;;;;;;;;;16.64;64.74;100453.75;6157035;23;823;-89
2022/06/29 06:00:46;;;;;;;;;;;;;;;16.65;65.01;100451.78;6156691;23;778;-89
2022/06/29 06:03:11;;;;;;;;;;;;;;;16.68;66.26;100450.31;6156719;23;1192;-89
2022/06/29 06:05:36;;;;;;;;;;;;;;;16.75;64.46;100440.44;6154943;23;1000;-90
2022/06/29 06:08:02;;;;;;;;;;;;;;;16.76;64.85;100444.03;6154971;23;1922;-90
2022/06/29 06:10:27;;;;;;;;;;;;;;;16.79;64.39;100449.69;6155453;23;1304;-89
2022/06/29 06:12:52;;;;;;;;;;;;;;;16.86;65.60;100447.25;6154853;23;1262;-89
2022/06/29 06:15:17;;;;;;;;;;;;;;;16.87;65.67;100440.59;6155917;23;810;-89
2022/06/29 06:17:42;;;;;;;;;;;;;;;16.85;65.90;100445.63;6153775;23;833;-90
2022/06/29 06:20:08;;;;;;;;;;;;;;;16.84;65.98;100437.69;6153408;23;1182;-90
2022/06/29 06:22:33;;;;;;;;;;;;;;;16.82;66.73;100437.19;6155696;23;1256;-89
2022/06/29 06:24:58;;;;;;;;;;;;;;;16.79;66.07;100446.94;6156536;23;1141;-89
2022/06/29 06:27:23;;;;;;;;;;;;;;;16.84;65.42;100446.75;6156219;23;1285;-89
2022/06/29 06:29:48;;;;;;;;;;;;;;;16.83;66.01;100444.34;6157721;23;1920;-89
2022/06/29 06:32:14;;;;;;;;;;;;;;;16.88;65.47;100444.19;6156307;23;1371;-89
2022/06/29 06:34:39;;;;;;;;;;;;;;;16.93;65.95;100444.81;6156713;23;1288;-88
2022/06/29 06:37:04;;;;;;;;;;;;;;;16.87;67.91;100437.84;6158073;23;759;-88
2022/06/29 06:39:29;;;;;;;;;;;;;;;16.95;68.64;100448.09;6156593;23;1013;-88
2022/06/29 06:41:54;;;;;;;;;;;;;;;17.00;68.37;100456.25;6156334;23;1200;-88
2022/06/29 06:44:19;;;;;;;;;;;;;;;17.05;67.45;100449.72;6156368;23;1259;-88
2022/06/29 06:46:48;;;;;;;;;;;;;;;17.13;68.13;100450.84;6156574;23;992;-88
2022/06/29 06:49:13;;;;;;;;;;;;;;;17.15;69.29;100441.09;6157987;23;1922;-88
2022/06/29 06:51:39;;;;;;;;;;;;;;;17.16;68.81;100439.97;6156647;23;1322;-88
2022/06/29 06:54:04;;;;;;;;;;;;;;;17.17;70.27;100438.84;6157514;23;1262;-89
2022/06/29 06:56:29;;;;;;;;;;;;;;;17.16;68.71;100447.44;6156289;23;1254;-88
2022/06/29 06:58:54;;;;;;;;;;;;;;;17.22;68.50;100451.66;6157642;23;981;-88
2022/06/29 07:01:19;;;;;;;;;;;;;;;17.33;68.66;100441.91;6156513;23;1210;-88
2022/06/29 07:03:44;;;;;;;;;;;;;;;17.39;66.96;100451.66;6157582;23;1261;-88
2022/06/29 07:06:10;;;;;;;;;;;;;;;17.51;66.95;100437.16;6156133;23;993;-89
2022/06/29 07:08:37;;;;;;;;;;;;;;;17.57;68.77;100442.19;6155605;23;1938;-88
2022/06/29 07:11:04;;;;;;;;;;;;;;;17.66;68.24;100440.25;6155246;23;1227;-88
2022/06/29 07:13:29;;;;;;;;;;;;;;;17.68;67.12;100440.75;6157146;23;1167;-88
2022/06/29 07:15:54;;;;;;;;;;;;;;;17.67;68.94;100436.34;6157612;23;980;-88
2022/06/29 07:18:19;;;;;;;;;;;;;;;17.72;68.52;100436.16;6155422;23;1331;-87
2022/06/29 07:20:45;;;;;;;;;;;;;;;17.83;68.21;100435.81;6157666;23;1020;-89
2022/06/29 07:23:10;;;;;;;;;;;;;;;17.95;65.97;100447.03;6157297;23;1279;-88
2022/06/29 07:25:35;;;;;;;;;;;;;;;18.04;65.43;100439.47;6155785;23;1356;-89
2022/06/29 07:28:00;;;;;;;;;;;;;;;18.06;67.86;100428.88;6155108;23;1893;-89
2022/06/29 07:30:25;;;;;;;;;;;;;;;18.12;68.23;100420.03;6156135;23;1187;-88
2022/06/29 07:32:52;;;;;;;;;;;;;;;18.30;65.23;100419.97;6155657;23;1422;-89
2022/06/29 07:35:17;;;;;;;;;;;;;;;18.36;66.62;100419.47;6156440;23;1200;-90
2022/06/29 07:37:45;;;;;;;;;;;;;;;18.45;66.53;100413.88;6155717;23;1149;-89
2022/06/29 07:40:10;;;;;;;;;;;;;;;18.50;68.71;100420.03;6156290;23;1209;-88
2022/06/29 07:42:36;;;;;;;;;;;;;;;18.57;68.57;100418.69;6156338;23;1264;-90
2022/06/29 07:45:02;;;;;;;;;;;;;;;18.58;67.59;100414.78;6155829;23;1287;-89
2022/06/29 07:47:27;;;;;;;;;;;;;;;18.56;69.57;100411.50;6155670;23;1287;-88
2022/06/29 07:49:52;;;;;;;;;;;;;;;18.62;68.93;100415.75;6157033;23;1924;-88
2022/06/29 07:52:17;;;;;;;;;;;;;;;18.72;67.01;100415.31;6155505;23;1284;-88
2022/06/29 07:54:42;;;;;;;;;;;;;;;18.79;67.56;100410.09;6155387;23;1001;-89
2022/06/29 07:57:07;;;;;;;;;;;;;;;18.92;66.19;100410.94;6155358;23;1010;-90
2022/06/29 07:59:33;;;;;;;;;;;;;;;18.98;66.05;100415.94;6155959;23;1176;-89
2022/06/29 08:01:58;;;;;;;;;;;;;;;19.07;66.61;100411.13;6158612;23;1319;-88
2022/06/29 08:04:23;;;;;;;;;;;;;;;19.20;65.06;100412.03;6174406;23;980;-89
2022/06/29 08:06:48;;;;;;;;;;;;;;;19.22;65.71;100415.28;6173366;23;1367;-89
2022/06/29 08:09:13;;;;;;;;;;;;;;;19.24;65.06;100411.00;6174001;23;1934;-89
2022/06/29 08:11:39;;;;;;;;;;;;;;;19.29;65.53;100409.97;6168019;23;977;-89
2022/06/29 08:14:04;;;;;;;;;;;;;;;19.31;66.19;100410.44;6155812;23;1278;-90
2022/06/29 08:16:29;;;;;;;;;;;;;;;19.30;65.21;100410.78;6157034;23;806;-88
2022/06/29 08:18:54;;;;;;;;;;;;;;;19.40;65.86;100407.56;6155505;23;1259;-89
2022/06/29 08:21:20;;;;;;;;;;;;;;;19.43;66.17;100406.91;6155392;23;1446;-88
2022/06/29 08:23:45;;;;;;;;;;;;;;;19.49;67.66;100398.03;6155166;23;1255;-87
2022/06/29 08:26:10;;;;;;;;;;;;;;;19.49;66.83;100395.25;6155068;23;1244;-87
2022/06/29 08:28:35;;;;;;;;;;;;;;;19.44;65.58;100398.22;6156809;23;1916;-87
2022/06/29 08:31:00;;;;;;;;;;;;;;;19.46;67.23;100393.16;6155671;23;1538;-87
2022/06/29 08:33:25;;;;;;;;;;;;;;;19.55;68.89;100395.88;6155517;23;1192;-86
2022/06/29 08:35:51;;;;;;;;;;;;;;;19.67;66.84;100387.56;6157031;23;981;-87
2022/06/29 08:38:16;;;;;;;;;;;;;;;19.84;65.26;100389.31;6157295;23;1013;-87
2022/06/29 08:40:46;;;;;;;;;;;;;;;19.90;65.35;100394.31;6155650;23;1301;-87
2022/06/29 08:43:12;;;;;;;;;;;;;;;20.12;62.67;100387.50;6155028;23;1290;-87
2022/06/29 08:45:44;;;;;;;;;;;;;;;20.38;62.35;100387.16;6156774;23;996;-86
2022/06/29 08:48:15;;;;;;;;;;;;;;;20.52;61.33;100386.78;6156413;23;1896;-87
2022/06/29 08:50:42;;;;;;;;;;;;;;;20.54;61.07;100388.06;6168428;23;1249;-87
2022/06/29 08:53:09;;;;;;;;;;;;;;;20.61;60.49;100385.50;6158052;23;1497;-87
2022/06/29 08:55:41;;;;;;;;;;;;;;;20.62;62.16;100387.13;6154502;23;1201;-87
2022/06/29 08:58:07;;;;;;;;;;;;;;;20.71;61.99;100387.81;6154853;23;1200;-86
2022/06/29 09:00:37;;;;;;;;;;;;;;;20.81;62.34;100385.72;6153812;23;1244;-87
2022/06/29 09:03:04;;;;;;;;;;;;;;;20.82;63.13;100379.78;6155119;23;1377;-87
2022/06/29 09:05:29;;;;;;;;;;;;;;;20.80;60.99;100392.44;6154679;23;1336;-87
2022/06/29 09:07:54;;;;;;;;;;;;;;;20.83;62.25;100386.97;6153825;23;1885;-87
2022/06/29 09:10:21;;;;;;;;;;;;;;;20.86;60.36;100380.69;6154689;23;1351;-87
2022/06/29 09:12:52;;;;;;;;;;;;;;;20.89;61.17;100379.19;6154472;23;1303;-86
2022/06/29 09:15:28;;;;;;;;;;;;;;;20.89;61.19;100387.53;6154428;23;1276;-87
2022/06/29 09:17:54;;;;;;;;;;;;;;;20.97;59.59;100381.00;6153536;23;1636;-86
2022/06/29 09:20:22;;;;;;;;;;;;;;;21.05;60.86;100375.31;6152829;23;1161;-86
2022/06/29 09:22:52;;;;;;;;;;;;;;;21.18;59.76;100387.22;6154174;23;1489;-87
2022/06/29 09:25:23;;;;;;;;;;;;;;;21.09;59.41;100383.78;6154748;23;1196;-88
2022/06/29 09:27:49;;;;;;;;;;;;;;;21.02;60.75;100372.41;6155194;23;1396;-87
2022/06/29 09:30:25;;;;;;;;;;;;;;;21.02;60.35;100375.19;6154496;23;1928;-87
2022/06/29 09:32:58;;;;;;;;;;;;;;;21.02;59.20;100378.78;6155126;23;1291;-87
2022/06/29 09:35:24;;;;;;;;;;;;;;;21.11;59.25;100376.66;6154961;23;1345;-86
2022/06/29 09:37:51;;;;;;;;;;;;;;;21.16;59.17;100378.41;6155165;23;1244;-87
2022/06/29 09:40:16;;;;;;;;;;;;;;;21.24;59.96;100377.47;6154873;23;1165;-88
2022/06/29 09:53:40;;;;;;;;;;;;;;;21.71;58.99;100373.94;6154551;23;1264;-87
2022/06/29 09:56:53;;;;;;;;;;;;;;;;;;;;;
2022/06/29 10:02:37;;;;;;;;;;;;;;;21.84;58.35;100381.06;6157065;23;1244;-88
2022/06/29 10:06:23;;;;;;;;;;;;;;;;;;;;;
2022/06/29 10:08:28;;;;;;;;;;;;;;;21.86;56.95;100373.16;6021266;23;1935;-90
2022/06/29 10:38:32;;;;;;;;;;;;;;;21.89;57.00;100353.72;6210805;23;1104;-87
2022/06/29 10:44:56;;;;;;;;;;;;;;;22.07;57.58;100343.03;6153506;23;1839;-88
2022/06/29 10:50:32;;;;;;;;;;;;;;;22.17;58.33;100339.72;6154113;23;1905;-89
2022/06/29 10:53:03;;;;;;;;;;;;;;;22.16;57.94;100340.88;6151228;23;1334;-89
2022/06/29 10:55:29;;;;;;;;;;;;;;;22.17;57.38;100334.13;6149284;23;1221;-89
2022/06/29 11:16:07;;;;;;;;;;;;;;;22.47;57.08;100320.47;6156523;23;661;-88
2022/06/29 11:22:05;;;;;;;;;;;;;;;22.61;57.95;100318.00;6125579;23;912;-88
2022/06/29 11:25:20;;;;;;;;;;;;;;;22.71;56.94;100308.25;6102389;23;1244;-88
2022/06/29 11:28:08;;;;;;;;;;;;;;;22.87;55.52;100322.97;6160159;23;1311;-89
2022/06/29 11:30:48;;;;;;;;;;;;;;;22.91;55.80;100321.03;6165343;23;1259;-88
2022/06/29 11:33:13;;;;;;;;;;;;;;;23.06;55.73;100321.31;6162243;23;1362;-86
2022/06/29 11:35:39;;;;;;;;;;;;;;;23.17;51.58;100313.97;6162126;23;964;-87
2022/06/29 11:38:05;;;;;;;;;;;;;;;23.09;52.52;100309.41;6157693;23;1397;-88
2022/06/29 11:40:40;;;;;;;;;;;;;;;23.03;54.79;100306.13;6156639;23;1211;-88
2022/06/29 11:43:10;;;;;;;;;;;;;;;23.01;55.26;100306.50;6156344;23;1188;-87
2022/06/29 11:45:38;;;;;;;;;;;;;;;23.02;54.31;100315.69;6158531;23;770;-87
2022/06/29 11:48:30;;;;;;;;;;;;;;;23.09;54.79;100310.22;6155879;23;1931;-88
2022/06/29 11:50:59;;;;;;;;;;;;;;;23.10;55.09;100303.47;6152271;23;995;-88
2022/06/29 11:53:47;;;;;;;;;;;;;;;23.12;54.64;100303.91;6156536;23;1251;-86
2022/06/29 11:56:16;;;;;;;;;;;;;;;23.12;52.64;100305.91;6154754;23;1326;-88
2022/06/29 11:58:43;;;;;;;;;;;;;;;23.08;54.76;100311.41;6154497;23;1252;-85
2022/06/29 12:01:16;;;;;;;;;;;;;;;23.04;53.76;100304.16;6156684;23;767;-88
2022/06/29 12:03:48;;;;;;;;;;;;;;;22.98;54.59;100296.06;6155376;23;1269;-87
2022/06/29 12:06:14;;;;;;;;;;;;;;;22.83;54.71;100299.75;6155219;23;1317;-88
2022/06/29 12:08:39;;;;;;;;;;;;;;;22.71;54.15;100294.28;6156952;23;1892;-87
2022/06/29 12:11:04;;;;;;;;;;;;;;;22.69;53.34;100293.03;6155032;23;1282;-88
2022/06/29 12:13:29;;;;;;;;;;;;;;;22.74;52.45;100284.34;6154885;23;1263;-88
2022/06/29 12:15:54;;;;;;;;;;;;;;;22.92;52.88;100272.41;6154899;23;802;-88
2022/06/29 12:18:19;;;;;;;;;;;;;;;23.14;52.67;100278.41;6155155;23;1244;-88
2022/06/29 12:20:45;;;;;;;;;;;;;;;23.28;53.21;100279.47;6154743;23;1412;-86
2022/06/29 12:23:10;;;;;;;;;;;;;;;23.37;53.01;100271.66;6154179;23;1195;-87
2022/06/29 12:25:36;;;;;;;;;;;;;;;23.42;52.64;100276.13;6155189;23;782;-88
2022/06/29 12:28:02;;;;;;;;;;;;;;;23.49;51.93;100269.88;6157963;23;1888;-86
2022/06/29 12:30:27;;;;;;;;;;;;;;;23.52;49.87;100269.13;6159438;23;857;-85
2022/06/29 12:32:52;;;;;;;;;;;;;;;23.55;51.11;100268.41;6156430;23;1205;-86
2022/06/29 12:35:18;;;;;;;;;;;;;;;23.55;50.69;100263.63;6156580;23;1020;-86
2022/06/29 12:37:44;;;;;;;;;;;;;;;23.60;49.80;100259.69;6156250;23;1033;-86
2022/06/29 12:40:11;;;;;;;;;;;;;;;23.66;50.69;100255.41;6158387;23;798;-86
2022/06/29 12:42:36;;;;;;;;;;;;;;;23.70;50.35;100251.50;6156327;23;1228;-85
2022/06/29 12:45:01;;;;;;;;;;;;;;;23.76;50.28;100241.59;6155788;23;1066;-86
2022/06/29 12:47:27;;;;;;;;;;;;;;;23.79;49.91;100245.66;6155434;23;1316;-86
2022/06/29 12:49:52;;;;;;;;;;;;;;;23.89;48.39;100244.19;6156388;23;1924;-86
2022/06/29 12:52:17;;;;;;;;;;;;;;;23.83;49.11;100246.50;6157298;23;1188;-86
2022/06/29 12:54:42;;;;;;;;;;;;;;;23.83;49.55;100240.09;6155895;23;878;-85
2022/06/29 12:57:07;;;;;;;;;;;;;;;23.92;48.03;100232.25;6154029;23;1316;-86
2022/06/29 12:59:32;;;;;;;;;;;;;;;24.02;48.67;100243.59;6154871;23;1502;-85
2022/06/29 13:01:58;;;;;;;;;;;;;;;24.03;49.32;100231.22;6155095;23;1267;-86
2022/06/29 13:04:23;;;;;;;;;;;;;;;24.04;49.55;100224.44;6155060;23;1377;-86
2022/06/29 13:06:48;;;;;;;;;;;;;;;24.07;48.44;100228.50;6155189;23;1377;-87
2022/06/29 13:09:14;;;;;;;;;;;;;;;24.18;46.18;100226.63;6154855;23;1920;-86
2022/06/29 13:11:39;;;;;;;;;;;;;;;24.25;44.83;100229.53;6154722;23;1224;-86
2022/06/29 13:14:04;;;;;;;;;;;;;;;24.29;45.06;100233.22;6154307;23;1215;-87
2022/06/29 13:16:29;;;;;;;;;;;;;;;24.34;46.76;100221.69;6155647;23;1075;-86
2022/06/29 13:18:54;;;;;;;;;;;;;;;24.37;47.10;100220.94;6155398;23;1025;-86
2022/06/29 13:21:20;;;;;;;;;;;;;;;24.46;45.57;100215.84;6154641;23;1192;-86
2022/06/29 13:23:45;;;;;;;;;;;;;;;24.55;45.89;100223.16;6154026;23;1330;-86
2022/06/29 13:26:11;;;;;;;;;;;;;;;24.60;45.36;100214.41;6154105;23;806;-86
2022/06/29 13:28:38;;;;;;;;;;;;;;;24.68;45.29;100222.50;6154787;23;1932;-87
2022/06/29 13:31:04;;;;;;;;;;;;;;;24.87;44.35;100213.09;6156479;23;884;-86
2022/06/29 13:33:29;;;;;;;;;;;;;;;25.02;44.03;100212.09;6155886;23;1282;-86
2022/06/29 13:35:54;;;;;;;;;;;;;;;26.89;41.68;100208.06;6154934;23;1315;-86
2022/06/29 13:38:19;;;;;;;;;;;;;;;29.18;35.52;100206.00;6153740;23;866;-86
2022/06/29 13:40:44;;;;;;;;;;;;;;;30.82;32.66;100193.84;6156136;23;976;-86
2022/06/29 13:43:09;;;;;;;;;;;;;;;31.92;29.57;100195.69;6153693;23;1350;-86
2022/06/29 13:45:35;;;;;;;;;;;;;;;32.84;28.77;100187.31;6154746;23;1169;-85
2022/06/29 13:48:00;;;;;;;;;;;;;;;33.56;27.82;100197.78;6154907;23;1273;-86
2022/06/29 13:50:26;;;;;;;;;;;;;;;34.22;27.96;100191.53;6153963;23;1872;-87
2022/06/29 13:52:51;;;;;;;;;;;;;;;34.53;26.52;100195.53;6154514;23;1330;-86
2022/06/29 13:55:16;;;;;;;;;;;;;;;34.96;26.05;100194.22;6153796;23;1331;-87
2022/06/29 13:57:43;;;;;;;;;;;;;;;35.36;25.56;100186.03;6154169;23;1180;-87
2022/06/29 14:00:08;;;;;;;;;;;;;;;35.66;24.74;100176.84;6155209;23;1275;-87
2022/06/29 14:02:34;;;;;;;;;;;;;;;35.94;23.14;100179.97;6154362;23;1192;-86
2022/06/29 14:04:59;;;;;;;;;;;;;;;36.06;23.27;100175.47;6154242;23;1180;-86
2022/06/29 14:07:25;;;;;;;;;;;;;;;36.29;22.73;100175.84;6155037;23;885;-88